createdAt,value
2018-02-18T08:02:41.153Z,36.08
2018-02-18T08:07:44.015Z,37.03
2018-02-18T08:12:48.000Z,33.80
2018-02-18T08:17:51.850Z,34.63
2018-02-18T08:22:55.481Z,35.57
2018-02-18T08:27:58.327Z,35.80
2018-02-18T08:33:01.176Z,34.60
2018-02-18T08:38:05.268Z,32.30
2018-02-18T08:43:09.147Z,33.93
2018-02-18T08:48:12.061Z,32.03
2018-02-18T08:53:14.975Z,30.65
2018-02-18T08:58:17.966Z,30.42
2018-02-18T09:03:24.547Z,30.00
2018-02-18T09:08:27.537Z,33.92
2018-02-18T09:13:30.349Z,33.28
2018-02-18T09:18:33.135Z,30.42
2018-02-18T09:23:36.226Z,30.62
2018-02-18T09:28:41.514Z,31.97
2018-02-18T09:33:44.364Z,32.40
2018-02-18T09:38:48.388Z,31.40
2018-02-18T09:43:53.342Z,30.25
2018-02-18T09:49:03.339Z,30.92
2018-02-18T09:54:06.461Z,29.25
2018-02-18T09:59:10.237Z,27.70
2018-02-18T10:04:16.141Z,28.45
2018-02-18T10:09:19.760Z,27.90
2018-02-18T10:14:22.677Z,27.07
2018-02-18T10:19:26.557Z,27.23
2018-02-18T10:24:29.802Z,27.55
2018-02-18T10:29:32.615Z,27.20
2018-02-18T10:34:35.712Z,26.80
2018-02-18T10:39:38.613Z,27.42
2018-02-18T10:44:43.037Z,26.35
2018-02-18T10:49:46.813Z,26.02
2018-02-18T10:54:49.903Z,23.80
2018-02-18T10:59:52.936Z,22.45
2018-02-18T11:04:55.767Z,23.45
2018-02-18T11:09:58.583Z,22.80
2018-02-18T11:15:01.460Z,23.35
2018-02-18T11:20:05.459Z,21.73
2018-02-18T11:25:08.316Z,22.23
2018-02-18T11:30:12.186Z,21.70
2018-02-18T11:35:15.669Z,18.67
2018-02-18T11:40:18.484Z,19.90
2018-02-18T11:45:22.923Z,21.00
2018-02-18T11:50:27.081Z,20.80
2018-02-18T11:55:33.073Z,23.20
2018-02-18T12:00:36.748Z,20.50
2018-02-18T12:05:40.318Z,19.43
2018-02-18T12:10:43.180Z,19.17
2018-02-18T12:15:45.973Z,19.62
2018-02-18T12:20:50.711Z,19.40
2018-02-18T12:25:54.130Z,19.50
2018-02-18T12:30:59.570Z,15.05
2018-02-18T12:36:02.740Z,16.07
2018-02-18T12:41:05.647Z,16.08
2018-02-18T12:46:09.219Z,13.50
2018-02-18T12:51:12.071Z,12.35
2018-02-18T12:56:18.983Z,12.60
2018-02-18T13:01:22.091Z,11.60
2018-02-18T13:06:27.051Z,11.52
2018-02-18T13:11:32.212Z,13.90
2018-02-18T13:16:41.919Z,14.20
2018-02-18T13:21:45.730Z,11.73
2018-02-18T13:26:48.610Z,13.40
2018-02-18T13:31:51.833Z,13.07
2018-02-18T13:36:54.746Z,13.05
2018-02-18T13:41:58.194Z,13.30
2018-02-18T13:47:02.945Z,12.90
2018-02-18T13:52:06.081Z,13.10
2018-02-18T13:57:09.572Z,13.60
2018-02-18T14:02:13.532Z,14.23
2018-02-18T14:07:16.859Z,14.65
2018-02-18T14:12:19.760Z,13.25
2018-02-18T14:17:22.607Z,14.35
2018-02-18T14:22:25.396Z,14.52
2018-02-18T14:27:28.301Z,14.93
2018-02-18T14:32:31.136Z,15.47
2018-02-18T14:37:34.037Z,14.93
2018-02-18T14:42:48.983Z,14.80
2018-02-18T14:48:04.080Z,13.32
2018-02-18T14:53:18.676Z,13.32
2018-02-18T14:58:21.606Z,17.70
2018-02-18T15:03:25.514Z,15.32
2018-02-18T15:08:29.954Z,15.10
2018-02-18T15:13:33.580Z,16.60
2018-02-18T15:18:37.361Z,16.30
2018-02-18T15:23:40.189Z,14.07
2018-02-18T15:28:43.952Z,15.73
2018-02-18T15:33:48.769Z,15.00
2018-02-18T15:38:53.507Z,14.65
2018-02-18T15:43:56.318Z,18.40
2018-02-18T15:48:59.967Z,13.60
2018-02-18T15:54:04.485Z,20.37
2018-02-18T15:59:07.853Z,16.55
2018-02-18T16:04:11.758Z,19.23
2018-02-18T16:09:15.340Z,18.50
2018-02-18T16:14:18.228Z,19.10
2018-02-18T16:19:22.449Z,17.95
2018-02-18T16:24:25.297Z,18.00
2018-02-18T16:29:28.157Z,17.30
2018-02-18T16:34:32.070Z,15.52
2018-02-18T16:39:35.029Z,15.90
2018-02-18T16:44:38.620Z,17.23
2018-02-18T16:49:41.410Z,15.43
2018-02-18T16:54:45.930Z,13.38
2018-02-18T16:59:48.951Z,12.25
2018-02-18T17:04:52.470Z,11.07
2018-02-18T17:09:58.268Z,11.12
2018-02-18T17:15:03.787Z,13.43
2018-02-18T17:20:07.087Z,24.80
2018-02-18T17:25:15.516Z,22.20
2018-02-18T17:30:21.613Z,26.75
2018-02-18T17:35:25.325Z,24.67
2018-02-18T17:40:29.349Z,21.20
2018-02-18T17:45:34.754Z,22.80
2018-02-18T17:50:38.696Z,23.20
2018-02-18T17:55:41.544Z,22.95
2018-02-18T18:00:45.148Z,24.15
2018-02-18T18:05:48.029Z,22.10
2018-02-18T18:10:52.779Z,22.92
2018-02-18T18:15:56.926Z,22.53
2018-02-18T18:21:05.926Z,23.87
2018-02-18T18:26:08.994Z,22.50
2018-02-18T18:31:13.083Z,22.35
2018-02-18T18:36:16.390Z,22.95
2018-02-18T18:41:19.380Z,20.90
2018-02-18T18:46:22.224Z,22.35
2018-02-18T18:51:26.708Z,21.98
2018-02-18T18:56:30.711Z,21.05
2018-02-18T19:06:50.931Z,23.40
2018-02-18T19:11:56.192Z,24.10
2018-02-18T19:16:59.807Z,23.65
2018-02-18T19:22:03.682Z,25.63
2018-02-18T19:27:08.201Z,23.73
2018-02-18T19:32:12.734Z,23.85
2018-02-18T19:37:17.515Z,22.40
2018-02-18T19:42:20.312Z,21.80
2018-02-18T19:47:24.737Z,22.80
2018-02-18T19:52:28.211Z,23.40
2018-02-18T19:57:32.759Z,23.25
2018-02-18T20:02:39.445Z,24.33
2018-02-18T20:07:49.289Z,21.03
2018-02-18T20:12:54.797Z,21.23
2018-02-18T20:18:00.019Z,20.13
2018-02-18T20:23:20.529Z,23.40
2018-02-18T20:28:38.755Z,24.10
2018-02-18T20:39:18.960Z,21.43
2018-02-18T20:44:23.322Z,24.85
2018-02-18T20:49:28.285Z,24.55
2018-02-18T20:54:34.914Z,23.42
2018-02-18T20:59:39.816Z,23.48
2018-02-18T21:04:45.306Z,23.08
2018-02-18T21:09:52.927Z,25.30
2018-02-18T21:15:03.482Z,22.13
2018-02-18T21:20:10.576Z,24.03
2018-02-18T21:25:15.088Z,23.47
2018-02-18T21:30:18.519Z,24.45
2018-02-18T21:35:21.426Z,23.40
2018-02-18T21:40:26.560Z,22.37
2018-02-18T21:45:35.421Z,23.23
2018-02-18T21:50:39.930Z,23.75
2018-02-18T21:55:46.355Z,23.77
2018-02-18T22:00:53.664Z,22.52
2018-02-18T22:05:56.934Z,21.10
2018-02-18T22:11:00.080Z,22.83
2018-02-18T22:16:03.001Z,24.67
2018-02-18T22:21:05.982Z,28.45
2018-02-18T22:26:09.019Z,30.83
2018-02-18T22:31:13.196Z,25.50
2018-02-18T22:36:18.190Z,23.65
2018-02-18T22:41:21.259Z,24.48
2018-02-18T22:46:25.678Z,24.80
2018-02-18T22:51:29.316Z,25.20
2018-02-18T22:56:32.421Z,21.97
2018-02-18T23:01:35.904Z,23.77
2018-02-18T23:06:40.184Z,23.30
2018-02-18T23:11:43.351Z,22.00
2018-02-18T23:16:51.741Z,23.83
2018-02-18T23:21:57.428Z,23.75
2018-02-18T23:27:02.446Z,23.37
2018-02-18T23:32:08.371Z,26.00
2018-02-18T23:37:11.322Z,25.98
2018-02-18T23:42:14.268Z,29.00
2018-02-18T23:47:17.231Z,25.67
2018-02-18T23:52:21.283Z,26.08
2018-02-18T23:57:24.292Z,24.07
